Wetterdaten: Woche 25.07.05 - 31.07.05 (KW30)
Datum Zeit Temperatur Luftfeuchte Luftdruck Niederschlag Windrichtung Wind
25.07.2005 00:00 15,8 C 96 % 1012 hPa 1,0 l/m S 7,8 km/h (2 Bft)
25.07.2005 01:00 15,6 C 99 % 1011 hPa 1,0 l/m S 12,8 km/h (3 Bft)
25.07.2005 02:00 15,6 C 100 % 1011 hPa 0,0 l/m S-SW 11,4 km/h (2 Bft)
25.07.2005 03:00 15,7 C 100 % 1011 hPa 0,0 l/m S-SW 15,6 km/h (3 Bft)
25.07.2005 04:00 15,8 C 97 % 1011 hPa 0,0 l/m SW 13,8 km/h (3 Bft)
25.07.2005 05:00 15,6 C 99 % 1011 hPa 1,0 l/m S-SW 11,4 km/h (2 Bft)
25.07.2005 06:00 15,6 C 100 % 1011 hPa 0,0 l/m S-SW 14,7 km/h (3 Bft)
25.07.2005 07:00 16,2 C 100 % 1011 hPa 0,0 l/m S-SW 16,8 km/h (3 Bft)
25.07.2005 08:00 16,8 C 99 % 1011 hPa 0,0 l/m S 9,1 km/h (2 Bft)
25.07.2005 09:00 17,6 C 98 % 1011 hPa 0,0 l/m W-SW 0,6 km/h (0 Bft)
25.07.2005 10:00 18,2 C 95 % 1012 hPa 1,0 l/m N 7,0 km/h (2 Bft)
25.07.2005 11:00 17,9 C 94 % 1012 hPa 6,0 l/m N 6,9 km/h (2 Bft)
25.07.2005 12:00 17,0 C 96 % 1012 hPa 8,0 l/m S-SO 3,9 km/h (1 Bft)
25.07.2005 13:00 17,7 C 98 % 1011 hPa 0,0 l/m S 9,2 km/h (2 Bft)
25.07.2005 14:00 19,4 C 93 % 1011 hPa 0,0 l/m S 10,4 km/h (2 Bft)
25.07.2005 15:00 20,2 C 87 % 1011 hPa 0,0 l/m S-SW 12,6 km/h (3 Bft)
25.07.2005 16:00 20,4 C 86 % 1011 hPa 0,0 l/m S 11,8 km/h (2 Bft)
25.07.2005 17:00 20,7 C 80 % 1011 hPa 0,0 l/m W-SW 11,2 km/h (2 Bft)
25.07.2005 18:00 20,1 C 84 % 1011 hPa 0,0 l/m S 10,3 km/h (2 Bft)
25.07.2005 19:00 19,7 C 91 % 1011 hPa 0,0 l/m S 11,1 km/h (2 Bft)
25.07.2005 20:00 19,0 C 95 % 1012 hPa 0,0 l/m S-SW 13,2 km/h (3 Bft)
25.07.2005 21:00 18,2 C 96 % 1012 hPa 0,0 l/m S 15,0 km/h (3 Bft)
25.07.2005 22:00 17,4 C 98 % 1013 hPa 0,0 l/m S-SW 17,1 km/h (3 Bft)
25.07.2005 23:00 17,2 C 99 % 1013 hPa 0,0 l/m S-SW 18,3 km/h (3 Bft)
26.07.2005 00:00 17,0 C 100 % 1013 hPa 0,0 l/m S 14,8 km/h (3 Bft)
26.07.2005 01:00 17,0 C 99 % 1013 hPa 0,0 l/m S-SW 10,6 km/h (2 Bft)
26.07.2005 02:00 17,0 C 97 % 1013 hPa 0,0 l/m S 9,0 km/h (2 Bft)
26.07.2005 03:00 16,7 C 97 % 1013 hPa 0,0 l/m S-SW 10,0 km/h (2 Bft)
26.07.2005 04:00 16,5 C 97 % 1013 hPa 0,0 l/m S-SW 9,6 km/h (2 Bft)
26.07.2005 05:00 16,3 C 99 % 1013 hPa 0,0 l/m S-SW 10,1 km/h (2 Bft)
26.07.2005 06:00 16,3 C 100 % 1014 hPa 0,0 l/m S 4,2 km/h (1 Bft)
26.07.2005 07:00 16,6 C 100 % 1014 hPa 0,0 l/m S-SW 8,5 km/h (2 Bft)
26.07.2005 08:00 17,4 C 99 % 1014 hPa 0,0 l/m S 9,3 km/h (2 Bft)
26.07.2005 09:00 18,5 C 93 % 1014 hPa 0,0 l/m S 8,0 km/h (2 Bft)
26.07.2005 10:00 19,1 C 85 % 1014 hPa 0,0 l/m S 10,6 km/h (2 Bft)
26.07.2005 11:00 19,6 C 78 % 1014 hPa 0,0 l/m W-SW 11,0 km/h (2 Bft)
26.07.2005 12:00 21,1 C 71 % 1014 hPa 0,0 l/m S 12,9 km/h (3 Bft)
26.07.2005 13:00 22,6 C 60 % 1014 hPa 0,0 l/m W-SW 11,5 km/h (2 Bft)
26.07.2005 14:00 23,7 C 52 % 1014 hPa 0,0 l/m W 8,7 km/h (2 Bft)
26.07.2005 15:00 24,5 C 50 % 1014 hPa 0,0 l/m W 7,3 km/h (2 Bft)
26.07.2005 16:00 24,9 C 49 % 1014 hPa 0,0 l/m W-SW 7,3 km/h (2 Bft)
26.07.2005 17:00 25,7 C 47 % 1014 hPa 0,0 l/m W-SW 5,1 km/h (1 Bft)
26.07.2005 18:00 25,4 C 50 % 1013 hPa 0,0 l/m S-SW 8,0 km/h (2 Bft)
26.07.2005 19:00 24,0 C 54 % 1013 hPa 0,0 l/m S-SW 8,0 km/h (2 Bft)
26.07.2005 20:00 22,2 C 63 % 1014 hPa 0,0 l/m N 0,0 km/h (0 Bft)
26.07.2005 21:00 20,1 C 73 % 1014 hPa 0,0 l/m N 0,0 km/h (0 Bft)
26.07.2005 22:00 18,7 C 79 % 1014 hPa 0,0 l/m N 0,0 km/h (0 Bft)
26.07.2005 23:00 17,6 C 83 % 1015 hPa 0,0 l/m N 0,0 km/h (0 Bft)
27.07.2005 00:00 16,7 C 86 % 1015 hPa 0,0 l/m W 0,4 km/h (0 Bft)
27.07.2005 01:00 16,0 C 90 % 1015 hPa 0,0 l/m N 0,0 km/h (0 Bft)
27.07.2005 02:00 15,6 C 92 % 1015 hPa 0,0 l/m NW 0,8 km/h (0 Bft)
27.07.2005 03:00 15,1 C 93 % 1015 hPa 0,0 l/m N 0,0 km/h (0 Bft)
27.07.2005 04:00 14,6 C 94 % 1015 hPa 0,0 l/m N 0,0 km/h (0 Bft)
27.07.2005 05:00 14,3 C 95 % 1015 hPa 0,0 l/m N 0,0 km/h (0 Bft)
27.07.2005 06:00 14,2 C 96 % 1015 hPa 0,0 l/m NW 3,3 km/h (1 Bft)
27.07.2005 07:00 15,3 C 98 % 1015 hPa 0,0 l/m N 0,0 km/h (0 Bft)
27.07.2005 08:00 17,3 C 95 % 1015 hPa 0,0 l/m N 0,0 km/h (0 Bft)
27.07.2005 09:00 19,9 C 85 % 1015 hPa 0,0 l/m SO 3,6 km/h (1 Bft)
27.07.2005 10:00 23,2 C 71 % 1015 hPa 0,0 l/m S 4,3 km/h (1 Bft)
27.07.2005 11:00 26,3 C 58 % 1015 hPa 0,0 l/m O-SO 6,2 km/h (2 Bft)
27.07.2005 12:00 28,5 C 46 % 1015 hPa 0,0 l/m O 5,4 km/h (1 Bft)
27.07.2005 13:00 30,0 C 36 % 1014 hPa 0,0 l/m O-SO 8,7 km/h (2 Bft)
27.07.2005 14:00 31,0 C 32 % 1014 hPa 0,0 l/m O-SO 9,1 km/h (2 Bft)
27.07.2005 15:00 31,5 C 33 % 1014 hPa 0,0 l/m S 9,9 km/h (2 Bft)
27.07.2005 16:00 31,9 C 31 % 1013 hPa 0,0 l/m S 11,3 km/h (2 Bft)
27.07.2005 17:00 32,6 C 29 % 1013 hPa 0,0 l/m W-SW 7,7 km/h (2 Bft)
27.07.2005 18:00 33,0 C 29 % 1013 hPa 0,0 l/m W 4,5 km/h (1 Bft)
27.07.2005 19:00 30,9 C 36 % 1013 hPa 0,0 l/m N 0,0 km/h (0 Bft)
27.07.2005 20:00 26,6 C 53 % 1013 hPa 0,0 l/m N 0,0 km/h (0 Bft)
27.07.2005 21:00 23,5 C 60 % 1013 hPa 0,0 l/m N 0,0 km/h (0 Bft)
27.07.2005 22:00 21,6 C 67 % 1013 hPa 0,0 l/m N 0,0 km/h (0 Bft)
27.07.2005 23:00 20,5 C 71 % 1013 hPa 0,0 l/m N 0,0 km/h (0 Bft)
28.07.2005 00:00 19,5 C 76 % 1013 hPa 0,0 l/m N 0,0 km/h (0 Bft)
28.07.2005 01:00 18,9 C 80 % 1013 hPa 0,0 l/m N 0,0 km/h (0 Bft)
28.07.2005 02:00 18,2 C 83 % 1014 hPa 0,0 l/m N 0,0 km/h (0 Bft)
28.07.2005 03:00 17,4 C 87 % 1014 hPa 0,0 l/m N 0,0 km/h (0 Bft)
28.07.2005 04:00 16,8 C 91 % 1014 hPa 0,0 l/m N 0,0 km/h (0 Bft)
28.07.2005 05:00 16,5 C 93 % 1014 hPa 0,0 l/m N 0,0 km/h (0 Bft)
28.07.2005 06:00 18,4 C 89 % 1015 hPa 0,0 l/m W 7,8 km/h (2 Bft)
28.07.2005 07:00 19,3 C 87 % 1015 hPa 0,0 l/m S-SW 3,9 km/h (1 Bft)
28.07.2005 08:00 20,3 C 88 % 1016 hPa 1,0 l/m S 8,9 km/h (2 Bft)
28.07.2005 09:00 23,1 C 71 % 1016 hPa 0,0 l/m S 7,5 km/h (2 Bft)
28.07.2005 10:00 26,2 C 60 % 1016 hPa 0,0 l/m O-SO 3,0 km/h (1 Bft)
28.07.2005 11:00 28,9 C 47 % 1016 hPa 0,0 l/m NW 1,1 km/h (1 Bft)
28.07.2005 12:00 30,8 C 41 % 1016 hPa 0,0 l/m O 2,2 km/h (1 Bft)
28.07.2005 13:00 31,9 C 36 % 1015 hPa 0,0 l/m O 2,4 km/h (1 Bft)
28.07.2005 14:00 32,8 C 35 % 1015 hPa 0,0 l/m O 3,7 km/h (1 Bft)
28.07.2005 15:00 33,6 C 33 % 1015 hPa 0,0 l/m S 6,0 km/h (2 Bft)
28.07.2005 16:00 34,4 C 31 % 1015 hPa 0,0 l/m O 8,3 km/h (2 Bft)
28.07.2005 17:00 34,8 C 30 % 1014 hPa 0,0 l/m O 4,9 km/h (1 Bft)
28.07.2005 18:00 35,0 C 29 % 1014 hPa 0,0 l/m O 1,4 km/h (1 Bft)
28.07.2005 19:00 32,5 C 39 % 1014 hPa 0,0 l/m O-NO 0,6 km/h (0 Bft)
28.07.2005 20:00 28,2 C 51 % 1014 hPa 0,0 l/m N 0,0 km/h (0 Bft)
28.07.2005 21:00 25,3 C 60 % 1014 hPa 0,0 l/m N 0,0 km/h (0 Bft)
28.07.2005 22:00 23,5 C 69 % 1015 hPa 0,0 l/m N 0,0 km/h (0 Bft)
28.07.2005 23:00 22,2 C 74 % 1015 hPa 0,0 l/m N 0,0 km/h (0 Bft)
29.07.2005 00:00 21,5 C 76 % 1015 hPa 0,0 l/m N-NW 0,7 km/h (0 Bft)
29.07.2005 01:00 20,5 C 80 % 1015 hPa 0,0 l/m N 0,0 km/h (0 Bft)
29.07.2005 02:00 19,7 C 84 % 1015 hPa 0,0 l/m N 0,0 km/h (0 Bft)
29.07.2005 03:00 19,0 C 87 % 1015 hPa 0,0 l/m N 0,0 km/h (0 Bft)
29.07.2005 04:00 20,6 C 74 % 1016 hPa 0,0 l/m NW 18,3 km/h (3 Bft)
29.07.2005 05:00 21,2 C 58 % 1015 hPa 0,0 l/m W 9,1 km/h (2 Bft)
29.07.2005 06:00 19,8 C 67 % 1016 hPa 0,0 l/m S 0,8 km/h (0 Bft)
29.07.2005 07:00 20,1 C 71 % 1016 hPa 0,0 l/m W 1,3 km/h (1 Bft)
29.07.2005 08:00 21,7 C 67 % 1016 hPa 0,0 l/m N-NO 0,7 km/h (0 Bft)
29.07.2005 09:00 23,6 C 62 % 1016 hPa 0,0 l/m N-NO 2,3 km/h (1 Bft)
29.07.2005 10:00 26,3 C 54 % 1015 hPa 0,0 l/m NO 1,3 km/h (1 Bft)
29.07.2005 11:00 28,5 C 48 % 1015 hPa 0,0 l/m O-NO 4,5 km/h (1 Bft)
29.07.2005 12:00 29,8 C 44 % 1015 hPa 0,0 l/m NW 7,3 km/h (2 Bft)
29.07.2005 13:00 31,2 C 40 % 1014 hPa 0,0 l/m N 10,1 km/h (2 Bft)
29.07.2005 14:00 32,1 C 37 % 1014 hPa 0,0 l/m O 7,7 km/h (2 Bft)
29.07.2005 15:00 31,8 C 37 % 1013 hPa 0,0 l/m O-NO 1,1 km/h (0 Bft)
29.07.2005 16:00 30,4 C 45 % 1013 hPa 0,0 l/m N 4,0 km/h (1 Bft)
29.07.2005 17:00 28,1 C 55 % 1012 hPa 0,0 l/m W-NW 7,2 km/h (2 Bft)
29.07.2005 18:00 26,3 C 57 % 1013 hPa 0,0 l/m S 14,3 km/h (3 Bft)
29.07.2005 19:00 23,7 C 52 % 1013 hPa 0,0 l/m SW 17,7 km/h (3 Bft)
29.07.2005 20:00 23,2 C 53 % 1015 hPa 0,0 l/m W 14,6 km/h (3 Bft)
29.07.2005 21:00 20,5 C 69 % 1015 hPa 0,0 l/m W 2,5 km/h (1 Bft)
29.07.2005 22:00 19,1 C 80 % 1016 hPa 0,0 l/m N 2,3 km/h (1 Bft)
29.07.2005 23:00 18,8 C 83 % 1017 hPa 0,0 l/m S 1,4 km/h (1 Bft)
30.07.2005 00:00 18,4 C 86 % 1018 hPa 1,0 l/m S 7,0 km/h (2 Bft)
30.07.2005 01:00 17,3 C 94 % 1017 hPa 1,0 l/m S-SW 8,0 km/h (2 Bft)
30.07.2005 02:00 16,8 C 96 % 1016 hPa 0,0 l/m S 5,2 km/h (1 Bft)
30.07.2005 03:00 16,7 C 97 % 1016 hPa 2,0 l/m S 1,5 km/h (1 Bft)
30.07.2005 04:00 16,7 C 97 % 1016 hPa 0,0 l/m N 0,0 km/h (0 Bft)
30.07.2005 05:00 16,6 C 98 % 1016 hPa 0,0 l/m W-SW 6,2 km/h (2 Bft)
30.07.2005 06:00 16,6 C 98 % 1017 hPa 0,0 l/m S 6,2 km/h (2 Bft)
30.07.2005 07:00 16,7 C 98 % 1017 hPa 0,0 l/m S 6,2 km/h (2 Bft)
30.07.2005 08:00 17,3 C 98 % 1017 hPa 0,0 l/m S-SW 7,9 km/h (2 Bft)
30.07.2005 09:00 17,7 C 95 % 1017 hPa 0,0 l/m N 0,2 km/h (0 Bft)
30.07.2005 10:00 17,9 C 92 % 1017 hPa 0,0 l/m S-SW 3,1 km/h (1 Bft)
30.07.2005 11:00 18,1 C 90 % 1017 hPa 0,0 l/m S-SW 8,3 km/h (2 Bft)
30.07.2005 12:00 18,1 C 92 % 1017 hPa 0,0 l/m S 11,2 km/h (2 Bft)
30.07.2005 13:00 18,2 C 92 % 1017 hPa 0,0 l/m S 10,7 km/h (2 Bft)
30.07.2005 14:00 18,5 C 92 % 1017 hPa 0,0 l/m S-SW 9,1 km/h (2 Bft)
30.07.2005 15:00 18,7 C 85 % 1017 hPa 0,0 l/m S-SW 8,6 km/h (2 Bft)
30.07.2005 16:00 18,9 C 85 % 1017 hPa 0,0 l/m S 10,9 km/h (2 Bft)
30.07.2005 17:00 18,8 C 86 % 1017 hPa 0,0 l/m S 10,5 km/h (2 Bft)
30.07.2005 18:00 18,0 C 91 % 1017 hPa 0,0 l/m S-SW 13,1 km/h (3 Bft)
30.07.2005 19:00 17,5 C 92 % 1016 hPa 0,0 l/m S-SW 15,1 km/h (3 Bft)
30.07.2005 20:00 16,9 C 90 % 1017 hPa 0,0 l/m S-SW 14,1 km/h (3 Bft)
30.07.2005 21:00 16,4 C 89 % 1017 hPa 0,0 l/m S-SO 7,9 km/h (2 Bft)
30.07.2005 22:00 16,2 C 90 % 1017 hPa 0,0 l/m S-SW 4,8 km/h (1 Bft)
30.07.2005 23:00 16,4 C 89 % 1017 hPa 0,0 l/m S-SW 13,9 km/h (3 Bft)
31.07.2005 00:00 16,3 C 92 % 1017 hPa 0,0 l/m S-SW 11,4 km/h (2 Bft)
31.07.2005 15:00 21,0 C 52 % 1016 hPa 0,0 l/m W 12,4 km/h (3 Bft)
31.07.2005 16:00 20,7 C 51 % 1016 hPa 0,0 l/m W 5,3 km/h (1 Bft)
31.07.2005 17:00 20,7 C 55 % 1016 hPa 0,0 l/m W-SW 1,5 km/h (1 Bft)
31.07.2005 18:00 19,7 C 63 % 1017 hPa 0,0 l/m S 13,2 km/h (3 Bft)
31.07.2005 19:00 19,3 C 66 % 1016 hPa 0,0 l/m S 4,9 km/h (1 Bft)
31.07.2005 20:00 18,3 C 73 % 1017 hPa 0,0 l/m S-SO 0,2 km/h (0 Bft)
31.07.2005 21:00 17,5 C 79 % 1017 hPa 0,0 l/m N 0,0 km/h (0 Bft)
31.07.2005 22:00 16,4 C 86 % 1017 hPa 0,0 l/m N 0,2 km/h (0 Bft)
31.07.2005 23:00 15,5 C 89 % 1018 hPa 0,0 l/m N 0,0 km/h (0 Bft)
Min-Datum _ 27.07.05 27.07.05 25.07.05 - - 25.07.05
_ Min-Zeit 06:07 18:24 00:59 - - 00:00
Minimum _ 14,0 C 26 % 1011 hPa - - 0,0 km/h (0 Bft)
Max-Datum _ 28.07.05 25.07.05 30.07.05 25.07.05 - 29.07.05
_ Max-Zeit 18:35 01:32 00:00 12:05 - 18:41
Maximum _ 35,2 C 100 % 1018 hPa 8,0 l/m - 58,0 km/h
S (7 Bft)
Durchschnitt _ 21,1 C 75 % 1015 hPa #23,0 l/m S 6,2 km/h (2 Bft)

Durchschnitt Minimum Temp.20,5 C
Durchschnitt Maximum Temp.21,6 C